sensor_id;sensor_type;location;lat;lon;timestamp;temperature;humidity
10512;DHT22;5304;48.604;2.096;2023-09-19T03:27:37;13.30;99.90
10512;DHT22;5304;48.604;2.096;2023-09-19T03:30:22;13.30;99.90
10512;DHT22;5304;48.604;2.096;2023-09-19T03:33:06;13.20;99.90
10512;DHT22;5304;48.604;2.096;2023-09-19T03:35:54;13.10;99.90
10512;DHT22;5304;48.604;2.096;2023-09-19T03:38:38;13.10;99.90
10512;DHT22;5304;48.604;2.096;2023-09-19T03:41:22;13.10;99.90
10512;DHT22;5304;48.604;2.096;2023-09-19T03:44:06;13.10;99.90
10512;DHT22;5304;48.604;2.096;2023-09-19T03:46:51;13.10;99.90
10512;DHT22;5304;48.604;2.096;2023-09-19T03:49:35;13.00;99.90
10512;DHT22;5304;48.604;2.096;2023-09-19T03:52:20;12.90;99.90
10512;DHT22;5304;48.604;2.096;2023-09-19T03:55:05;12.80;99.90
10512;DHT22;5304;48.604;2.096;2023-09-19T03:57:49;12.70;99.90
10512;DHT22;5304;48.604;2.096;2023-09-19T04:00:34;12.80;99.90
10512;DHT22;5304;48.604;2.096;2023-09-19T04:03:18;12.70;99.90
10512;DHT22;5304;48.604;2.096;2023-09-19T04:06:05;12.70;99.90
10512;DHT22;5304;48.604;2.096;2023-09-19T04:08:50;12.70;99.90
10512;DHT22;5304;48.604;2.096;2023-09-19T04:11:34;12.60;99.90
10512;DHT22;5304;48.604;2.096;2023-09-19T04:14:18;12.70;99.90
10512;DHT22;5304;48.604;2.096;2023-09-19T04:17:03;12.60;99.90
10512;DHT22;5304;48.604;2.096;2023-09-19T04:19:47;12.60;99.90
10512;DHT22;5304;48.604;2.096;2023-09-19T04:22:31;12.70;99.90
10512;DHT22;5304;48.604;2.096;2023-09-19T04:25:17;12.80;99.90
10512;DHT22;5304;48.604;2.096;2023-09-19T04:28:02;12.80;99.90
10512;DHT22;5304;48.604;2.096;2023-09-19T04:30:48;12.90;99.90
10512;DHT22;5304;48.604;2.096;2023-09-19T04:33:32;13.00;99.90
10512;DHT22;5304;48.604;2.096;2023-09-19T04:36:19;13.00;99.90
10512;DHT22;5304;48.604;2.096;2023-09-19T04:39:05;13.00;99.90
10512;DHT22;5304;48.604;2.096;2023-09-19T04:41:49;13.00;99.90
10512;DHT22;5304;48.604;2.096;2023-09-19T04:44:33;13.00;99.90
10512;DHT22;5304;48.604;2.096;2023-09-19T04:47:17;13.00;99.90
10512;DHT22;5304;48.604;2.096;2023-09-19T04:50:09;13.10;99.90
10512;DHT22;5304;48.604;2.096;2023-09-19T04:52:57;13.20;99.90
10512;DHT22;5304;48.604;2.096;2023-09-19T04:55:41;13.20;99.90
10512;DHT22;5304;48.604;2.096;2023-09-19T04:58:25;13.20;99.90
10512;DHT22;5304;48.604;2.096;2023-09-19T05:01:09;13.20;99.90
10512;DHT22;5304;48.604;2.096;2023-09-19T05:03:56;13.20;99.90
10512;DHT22;5304;48.604;2.096;2023-09-19T05:06:40;13.20;99.90
10512;DHT22;5304;48.604;2.096;2023-09-19T05:09:25;13.10;99.90
10512;DHT22;5304;48.604;2.096;2023-09-19T05:12:10;13.10;99.90
10512;DHT22;5304;48.604;2.096;2023-09-19T05:14:54;13.10;99.90
10512;DHT22;5304;48.604;2.096;2023-09-19T05:17:39;13.00;99.90
10512;DHT22;5304;48.604;2.096;2023-09-19T05:20:24;13.00;99.90
10512;DHT22;5304;48.604;2.096;2023-09-19T05:23:14;13.00;99.90
10512;DHT22;5304;48.604;2.096;2023-09-19T05:25:59;13.00;99.90
10512;DHT22;5304;48.604;2.096;2023-09-19T05:28:43;13.00;99.90
10512;DHT22;5304;48.604;2.096;2023-09-19T05:31:28;13.00;99.90
10512;DHT22;5304;48.604;2.096;2023-09-19T05:34:12;13.00;99.90
10512;DHT22;5304;48.604;2.096;2023-09-19T05:36:57;12.90;99.90
10512;DHT22;5304;48.604;2.096;2023-09-19T05:39:41;12.90;99.90
10512;DHT22;5304;48.604;2.096;2023-09-19T05:42:26;12.90;99.90
10512;DHT22;5304;48.604;2.096;2023-09-19T05:45:11;12.90;99.90
10512;DHT22;5304;48.604;2.096;2023-09-19T05:48:10;12.90;99.90
10512;DHT22;5304;48.604;2.096;2023-09-19T05:50:56;12.90;99.90
10512;DHT22;5304;48.604;2.096;2023-09-19T05:53:40;12.90;99.90
10512;DHT22;5304;48.604;2.096;2023-09-19T05:56:27;12.90;99.90
10512;DHT22;5304;48.604;2.096;2023-09-19T05:59:11;13.00;99.90
10512;DHT22;5304;48.604;2.096;2023-09-19T06:01:56;13.10;99.90
10512;DHT22;5304;48.604;2.096;2023-09-19T06:04:40;13.20;99.90
10512;DHT22;5304;48.604;2.096;2023-09-19T06:07:25;13.30;99.90
10512;DHT22;5304;48.604;2.096;2023-09-19T06:10:11;13.40;99.90
10512;DHT22;5304;48.604;2.096;2023-09-19T06:12:55;13.40;99.90
10512;DHT22;5304;48.604;2.096;2023-09-19T06:15:42;13.30;99.90
10512;DHT22;5304;48.604;2.096;2023-09-19T06:18:26;13.40;99.90
10512;DHT22;5304;48.604;2.096;2023-09-19T06:21:11;13.30;99.90
10512;DHT22;5304;48.604;2.096;2023-09-19T06:23:56;13.40;99.90
10512;DHT22;5304;48.604;2.096;2023-09-19T06:26:41;13.50;99.90
10512;DHT22;5304;48.604;2.096;2023-09-19T06:29:28;13.60;99.90
10512;DHT22;5304;48.604;2.096;2023-09-19T06:32:12;13.60;99.90
10512;DHT22;5304;48.604;2.096;2023-09-19T06:34:57;13.60;99.90
10512;DHT22;5304;48.604;2.096;2023-09-19T06:37:43;13.60;99.90
10512;DHT22;5304;48.604;2.096;2023-09-19T06:40:28;13.80;99.90
10512;DHT22;5304;48.604;2.096;2023-09-19T06:43:12;13.80;99.90
10512;DHT22;5304;48.604;2.096;2023-09-19T06:45:56;13.90;99.90
10512;DHT22;5304;48.604;2.096;2023-09-19T06:48:41;14.00;99.90
10512;DHT22;5304;48.604;2.096;2023-09-19T06:51:28;14.20;99.90
10512;DHT22;5304;48.604;2.096;2023-09-19T06:54:14;14.40;99.90
10512;DHT22;5304;48.604;2.096;2023-09-19T06:56:58;14.50;99.90
10512;DHT22;5304;48.604;2.096;2023-09-19T06:59:42;14.60;99.90
10512;DHT22;5304;48.604;2.096;2023-09-19T07:02:27;14.60;99.90
10512;DHT22;5304;48.604;2.096;2023-09-19T07:05:11;14.60;99.90
10512;DHT22;5304;48.604;2.096;2023-09-19T07:07:55;14.60;99.90
10512;DHT22;5304;48.604;2.096;2023-09-19T07:10:41;14.70;99.90
10512;DHT22;5304;48.604;2.096;2023-09-19T07:13:26;14.80;99.90
10512;DHT22;5304;48.604;2.096;2023-09-19T07:16:10;14.80;99.90
10512;DHT22;5304;48.604;2.096;2023-09-19T07:19:11;15.00;99.90
10512;DHT22;5304;48.604;2.096;2023-09-19T07:21:55;15.20;99.90
10512;DHT22;5304;48.604;2.096;2023-09-19T07:24:39;15.30;99.90
10512;DHT22;5304;48.604;2.096;2023-09-19T07:27:24;15.40;99.90
10512;DHT22;5304;48.604;2.096;2023-09-19T07:30:09;15.80;99.90
10512;DHT22;5304;48.604;2.096;2023-09-19T07:32:56;16.00;99.90
10512;DHT22;5304;48.604;2.096;2023-09-19T07:35:40;16.00;99.90
10512;DHT22;5304;48.604;2.096;2023-09-19T07:38:24;15.80;99.90
10512;DHT22;5304;48.604;2.096;2023-09-19T07:41:09;15.70;99.90
10512;DHT22;5304;48.604;2.096;2023-09-19T07:43:53;15.60;99.90
10512;DHT22;5304;48.604;2.096;2023-09-19T07:46:37;15.80;99.90
10512;DHT22;5304;48.604;2.096;2023-09-19T07:49:21;16.10;99.90
10512;DHT22;5304;48.604;2.096;2023-09-19T07:52:05;16.40;99.90
10512;DHT22;5304;48.604;2.096;2023-09-19T07:54:49;17.00;99.90
10512;DHT22;5304;48.604;2.096;2023-09-19T07:57:37;17.50;99.90
10512;DHT22;5304;48.604;2.096;2023-09-19T08:00:21;17.90;99.90
10512;DHT22;5304;48.604;2.096;2023-09-19T08:03:05;18.50;99.90
10512;DHT22;5304;48.604;2.096;2023-09-19T08:05:51;18.60;99.90
10512;DHT22;5304;48.604;2.096;2023-09-19T08:08:36;18.70;99.90
10512;DHT22;5304;48.604;2.096;2023-09-19T08:11:23;18.30;99.90
10512;DHT22;5304;48.604;2.096;2023-09-19T08:14:08;18.00;99.90
10512;DHT22;5304;48.604;2.096;2023-09-19T08:16:57;17.60;99.90
10512;DHT22;5304;48.604;2.096;2023-09-19T08:19:41;17.30;99.90
10512;DHT22;5304;48.604;2.096;2023-09-19T08:22:28;17.30;99.90
10512;DHT22;5304;48.604;2.096;2023-09-19T08:25:12;17.00;99.90
10512;DHT22;5304;48.604;2.096;2023-09-19T08:27:57;17.00;99.90
10512;DHT22;5304;48.604;2.096;2023-09-19T08:30:46;17.00;99.90
10512;DHT22;5304;48.604;2.096;2023-09-19T08:33:34;17.00;99.90
10512;DHT22;5304;48.604;2.096;2023-09-19T08:36:19;17.10;99.90
10512;DHT22;5304;48.604;2.096;2023-09-19T08:39:03;17.20;99.90
10512;DHT22;5304;48.604;2.096;2023-09-19T08:41:48;17.30;99.90
10512;DHT22;5304;48.604;2.096;2023-09-19T08:44:36;17.50;99.90
10512;DHT22;5304;48.604;2.096;2023-09-19T08:47:40;18.10;99.90
10512;DHT22;5304;48.604;2.096;2023-09-19T08:50:29;18.70;99.90
10512;DHT22;5304;48.604;2.096;2023-09-19T08:53:21;19.50;99.90
10512;DHT22;5304;48.604;2.096;2023-09-19T08:56:13;20.20;99.90
10512;DHT22;5304;48.604;2.096;2023-09-19T08:59:00;20.90;99.90
10512;DHT22;5304;48.604;2.096;2023-09-19T09:01:46;21.70;99.90
10512;DHT22;5304;48.604;2.096;2023-09-19T09:04:31;22.00;99.90
10512;DHT22;5304;48.604;2.096;2023-09-19T09:07:18;22.20;99.90
10512;DHT22;5304;48.604;2.096;2023-09-19T09:10:03;22.30;99.90
10512;DHT22;5304;48.604;2.096;2023-09-19T09:12:54;22.40;99.90
10512;DHT22;5304;48.604;2.096;2023-09-19T09:15:42;22.20;99.90
10512;DHT22;5304;48.604;2.096;2023-09-19T09:18:29;21.90;99.90
10512;DHT22;5304;48.604;2.096;2023-09-19T09:21:16;21.60;99.90
10512;DHT22;5304;48.604;2.096;2023-09-19T09:24:26;20.90;99.90
10512;DHT22;5304;48.604;2.096;2023-09-19T09:27:13;20.50;99.90
10512;DHT22;5304;48.604;2.096;2023-09-19T09:29:57;20.60;99.90
10512;DHT22;5304;48.604;2.096;2023-09-19T09:32:41;20.60;99.90
10512;DHT22;5304;48.604;2.096;2023-09-19T09:35:26;20.80;99.90
10512;DHT22;5304;48.604;2.096;2023-09-19T09:38:11;21.00;99.90
10512;DHT22;5304;48.604;2.096;2023-09-19T09:40:56;21.00;99.90
10512;DHT22;5304;48.604;2.096;2023-09-19T09:43:50;21.20;99.90
10512;DHT22;5304;48.604;2.096;2023-09-19T09:46:37;21.40;99.90
10512;DHT22;5304;48.604;2.096;2023-09-19T09:49:38;21.50;99.90
10512;DHT22;5304;48.604;2.096;2023-09-19T09:52:23;21.60;99.90
10512;DHT22;5304;48.604;2.096;2023-09-19T09:55:08;21.80;99.90
10512;DHT22;5304;48.604;2.096;2023-09-19T09:58:16;21.70;99.90
10512;DHT22;5304;48.604;2.096;2023-09-19T10:01:07;22.10;99.90
10512;DHT22;5304;48.604;2.096;2023-09-19T10:03:58;22.10;99.90
10512;DHT22;5304;48.604;2.096;2023-09-19T10:06:44;21.70;99.90
10512;DHT22;5304;48.604;2.096;2023-09-19T10:09:46;21.40;99.90
10512;DHT22;5304;48.604;2.096;2023-09-19T10:12:39;21.80;99.90
10512;DHT22;5304;48.604;2.096;2023-09-19T10:15:26;21.80;99.90
10512;DHT22;5304;48.604;2.096;2023-09-19T10:18:14;21.50;99.90
10512;DHT22;5304;48.604;2.096;2023-09-19T10:21:02;21.60;99.90
10512;DHT22;5304;48.604;2.096;2023-09-19T10:23:50;21.80;99.90
10512;DHT22;5304;48.604;2.096;2023-09-19T10:26:36;22.00;99.90
10512;DHT22;5304;48.604;2.096;2023-09-19T10:29:21;22.10;99.90
10512;DHT22;5304;48.604;2.096;2023-09-19T10:32:06;22.20;99.90
10512;DHT22;5304;48.604;2.096;2023-09-19T10:34:53;21.90;99.90
10512;DHT22;5304;48.604;2.096;2023-09-19T10:37:40;21.80;99.90
10512;DHT22;5304;48.604;2.096;2023-09-19T10:40:24;21.30;99.90
10512;DHT22;5304;48.604;2.096;2023-09-19T10:43:19;21.10;99.90
10512;DHT22;5304;48.604;2.096;2023-09-19T10:46:08;20.90;99.90
10512;DHT22;5304;48.604;2.096;2023-09-19T10:49:00;20.70;99.90
10512;DHT22;5304;48.604;2.096;2023-09-19T10:51:45;20.50;99.90
10512;DHT22;5304;48.604;2.096;2023-09-19T10:54:34;20.30;99.90
10512;DHT22;5304;48.604;2.096;2023-09-19T10:57:25;20.60;99.90
10512;DHT22;5304;48.604;2.096;2023-09-19T11:00:11;20.60;99.90
10512;DHT22;5304;48.604;2.096;2023-09-19T11:06:10;20.80;99.90
10512;DHT22;5304;48.604;2.096;2023-09-19T11:08:59;20.80;99.90
10512;DHT22;5304;48.604;2.096;2023-09-19T11:11:55;20.60;99.90
10512;DHT22;5304;48.604;2.096;2023-09-19T11:14:41;20.60;99.90
10512;DHT22;5304;48.604;2.096;2023-09-19T11:17:42;20.40;99.90
10512;DHT22;5304;48.604;2.096;2023-09-19T11:20:28;20.10;99.90
10512;DHT22;5304;48.604;2.096;2023-09-19T11:23:27;20.10;99.90
10512;DHT22;5304;48.604;2.096;2023-09-19T11:26:43;20.60;99.90
10512;DHT22;5304;48.604;2.096;2023-09-19T11:29:31;21.00;99.90
10512;DHT22;5304;48.604;2.096;2023-09-19T11:32:16;21.50;99.90
10512;DHT22;5304;48.604;2.096;2023-09-19T11:35:07;21.60;99.90
10512;DHT22;5304;48.604;2.096;2023-09-19T11:40:36;21.30;99.90
10512;DHT22;5304;48.604;2.096;2023-09-19T11:43:31;20.90;99.90
10512;DHT22;5304;48.604;2.096;2023-09-19T11:46:18;20.60;99.90
10512;DHT22;5304;48.604;2.096;2023-09-19T11:49:09;20.50;99.90
10512;DHT22;5304;48.604;2.096;2023-09-19T11:52:04;20.60;99.90
10512;DHT22;5304;48.604;2.096;2023-09-19T11:54:56;20.90;99.90
10512;DHT22;5304;48.604;2.096;2023-09-19T11:57:41;20.80;99.90
10512;DHT22;5304;48.604;2.096;2023-09-19T12:00:26;20.80;99.90
10512;DHT22;5304;48.604;2.096;2023-09-19T12:03:12;21.00;99.90
10512;DHT22;5304;48.604;2.096;2023-09-19T12:05:59;21.20;99.90
10512;DHT22;5304;48.604;2.096;2023-09-19T12:08:44;21.10;99.90
10512;DHT22;5304;48.604;2.096;2023-09-19T12:11:31;20.90;99.90
10512;DHT22;5304;48.604;2.096;2023-09-19T12:14:23;20.60;99.90
10512;DHT22;5304;48.604;2.096;2023-09-19T12:17:11;20.40;99.90
10512;DHT22;5304;48.604;2.096;2023-09-19T12:19:57;20.40;99.90
10512;DHT22;5304;48.604;2.096;2023-09-19T12:22:45;20.50;99.90
10512;DHT22;5304;48.604;2.096;2023-09-19T12:25:42;20.60;99.90
10512;DHT22;5304;48.604;2.096;2023-09-19T12:28:30;20.60;99.90
10512;DHT22;5304;48.604;2.096;2023-09-19T12:31:15;20.50;99.90
10512;DHT22;5304;48.604;2.096;2023-09-19T12:34:02;20.50;99.90
10512;DHT22;5304;48.604;2.096;2023-09-19T12:36:47;20.70;99.90
10512;DHT22;5304;48.604;2.096;2023-09-19T12:39:31;20.80;99.90
10512;DHT22;5304;48.604;2.096;2023-09-19T12:42:19;21.30;99.90
10512;DHT22;5304;48.604;2.096;2023-09-19T12:45:07;21.60;99.90
10512;DHT22;5304;48.604;2.096;2023-09-19T12:48:21;21.60;99.90
10512;DHT22;5304;48.604;2.096;2023-09-19T12:51:10;21.60;99.90
10512;DHT22;5304;48.604;2.096;2023-09-19T12:53:57;21.70;99.90
10512;DHT22;5304;48.604;2.096;2023-09-19T12:56:45;21.80;99.90
10512;DHT22;5304;48.604;2.096;2023-09-19T12:59:33;22.00;99.90
10512;DHT22;5304;48.604;2.096;2023-09-19T13:02:20;21.80;99.90
10512;DHT22;5304;48.604;2.096;2023-09-19T13:05:08;21.50;99.90
10512;DHT22;5304;48.604;2.096;2023-09-19T13:07:54;21.50;99.90
10512;DHT22;5304;48.604;2.096;2023-09-19T13:13:47;21.50;99.90
10512;DHT22;5304;48.604;2.096;2023-09-19T13:17:01;22.00;99.90
10512;DHT22;5304;48.604;2.096;2023-09-19T13:19:51;22.40;99.90
10512;DHT22;5304;48.604;2.096;2023-09-19T13:22:42;22.80;99.90
10512;DHT22;5304;48.604;2.096;2023-09-19T13:25:28;22.40;99.90
10512;DHT22;5304;48.604;2.096;2023-09-19T13:28:14;21.90;99.90
10512;DHT22;5304;48.604;2.096;2023-09-19T13:30:58;21.80;99.90
10512;DHT22;5304;48.604;2.096;2023-09-19T13:33:46;22.20;99.90
10512;DHT22;5304;48.604;2.096;2023-09-19T13:36:31;22.40;99.90
10512;DHT22;5304;48.604;2.096;2023-09-19T13:39:16;22.40;99.90
10512;DHT22;5304;48.604;2.096;2023-09-19T13:42:00;22.40;99.90
10512;DHT22;5304;48.604;2.096;2023-09-19T13:44:44;22.20;99.90
10512;DHT22;5304;48.604;2.096;2023-09-19T13:47:29;21.90;99.90
10512;DHT22;5304;48.604;2.096;2023-09-19T13:50:13;21.80;99.90
10512;DHT22;5304;48.604;2.096;2023-09-19T13:52:58;21.40;99.90
10512;DHT22;5304;48.604;2.096;2023-09-19T13:55:44;21.20;99.90
10512;DHT22;5304;48.604;2.096;2023-09-19T13:58:28;21.20;99.90
10512;DHT22;5304;48.604;2.096;2023-09-19T14:01:14;21.30;99.90
10512;DHT22;5304;48.604;2.096;2023-09-19T14:03:58;21.30;99.90
10512;DHT22;5304;48.604;2.096;2023-09-19T14:06:42;21.30;99.90
10512;DHT22;5304;48.604;2.096;2023-09-19T14:09:27;21.30;99.90
10512;DHT22;5304;48.604;2.096;2023-09-19T14:12:12;21.30;99.90
10512;DHT22;5304;48.604;2.096;2023-09-19T14:14:56;21.40;99.90
10512;DHT22;5304;48.604;2.096;2023-09-19T14:17:41;21.40;99.90
10512;DHT22;5304;48.604;2.096;2023-09-19T14:20:27;21.30;99.90
10512;DHT22;5304;48.604;2.096;2023-09-19T14:23:12;21.30;99.90
10512;DHT22;5304;48.604;2.096;2023-09-19T14:25:56;21.50;99.90
10512;DHT22;5304;48.604;2.096;2023-09-19T14:28:40;21.80;99.90
10512;DHT22;5304;48.604;2.096;2023-09-19T14:31:24;21.80;99.90
10512;DHT22;5304;48.604;2.096;2023-09-19T14:34:10;21.70;99.90
10512;DHT22;5304;48.604;2.096;2023-09-19T14:36:54;21.70;99.90
10512;DHT22;5304;48.604;2.096;2023-09-19T14:39:39;21.60;99.90
10512;DHT22;5304;48.604;2.096;2023-09-19T14:42:23;21.50;99.90
10512;DHT22;5304;48.604;2.096;2023-09-19T14:45:08;21.60;99.90
10512;DHT22;5304;48.604;2.096;2023-09-19T14:47:53;21.80;99.90
10512;DHT22;5304;48.604;2.096;2023-09-19T14:50:38;21.90;99.90
10512;DHT22;5304;48.604;2.096;2023-09-19T14:53:23;21.90;99.90
10512;DHT22;5304;48.604;2.096;2023-09-19T14:56:09;21.80;99.90
10512;DHT22;5304;48.604;2.096;2023-09-19T14:58:54;21.70;99.90
10512;DHT22;5304;48.604;2.096;2023-09-19T15:01:38;21.60;99.90
10512;DHT22;5304;48.604;2.096;2023-09-19T15:04:24;21.60;99.90
10512;DHT22;5304;48.604;2.096;2023-09-19T15:07:08;21.60;99.90
10512;DHT22;5304;48.604;2.096;2023-09-19T15:09:52;21.70;99.90
10512;DHT22;5304;48.604;2.096;2023-09-19T15:12:37;21.60;99.90
10512;DHT22;5304;48.604;2.096;2023-09-19T15:15:22;21.70;99.90
10512;DHT22;5304;48.604;2.096;2023-09-19T15:18:06;21.60;99.90
10512;DHT22;5304;48.604;2.096;2023-09-19T15:20:52;21.70;99.90
10512;DHT22;5304;48.604;2.096;2023-09-19T15:23:38;21.50;99.90
10512;DHT22;5304;48.604;2.096;2023-09-19T15:26:22;21.50;99.90
10512;DHT22;5304;48.604;2.096;2023-09-19T15:29:07;21.40;99.90
10512;DHT22;5304;48.604;2.096;2023-09-19T15:31:51;21.50;99.90
10512;DHT22;5304;48.604;2.096;2023-09-19T15:34:36;21.50;99.90
10512;DHT22;5304;48.604;2.096;2023-09-19T15:37:20;21.30;99.90
10512;DHT22;5304;48.604;2.096;2023-09-19T15:40:05;21.20;99.90
10512;DHT22;5304;48.604;2.096;2023-09-19T15:42:54;21.00;99.90
10512;DHT22;5304;48.604;2.096;2023-09-19T15:45:37;21.10;99.90
10512;DHT22;5304;48.604;2.096;2023-09-19T15:48:22;21.10;99.90
10512;DHT22;5304;48.604;2.096;2023-09-19T15:51:06;21.20;99.90
10512;DHT22;5304;48.604;2.096;2023-09-19T15:53:52;21.50;99.90
10512;DHT22;5304;48.604;2.096;2023-09-19T15:56:37;21.60;99.90
10512;DHT22;5304;48.604;2.096;2023-09-19T15:59:25;21.70;99.90
10512;DHT22;5304;48.604;2.096;2023-09-19T16:02:09;21.60;99.90
10512;DHT22;5304;48.604;2.096;2023-09-19T16:04:54;21.40;99.90
10512;DHT22;5304;48.604;2.096;2023-09-19T16:07:39;21.30;99.90
10512;DHT22;5304;48.604;2.096;2023-09-19T16:10:23;21.30;99.90
10512;DHT22;5304;48.604;2.096;2023-09-19T16:13:08;21.10;99.90
10512;DHT22;5304;48.604;2.096;2023-09-19T16:15:52;21.10;99.90
10512;DHT22;5304;48.604;2.096;2023-09-19T16:18:36;21.10;99.90
10512;DHT22;5304;48.604;2.096;2023-09-19T16:21:20;21.10;99.90
10512;DHT22;5304;48.604;2.096;2023-09-19T16:24:05;21.10;99.90
10512;DHT22;5304;48.604;2.096;2023-09-19T16:26:49;21.00;99.90
10512;DHT22;5304;48.604;2.096;2023-09-19T16:29:33;20.90;99.90
10512;DHT22;5304;48.604;2.096;2023-09-19T16:32:19;20.90;99.90
10512;DHT22;5304;48.604;2.096;2023-09-19T16:35:04;20.80;99.90
10512;DHT22;5304;48.604;2.096;2023-09-19T16:37:48;20.80;99.90
10512;DHT22;5304;48.604;2.096;2023-09-19T16:40:33;20.90;99.90
10512;DHT22;5304;48.604;2.096;2023-09-19T16:43:18;20.80;99.90
10512;DHT22;5304;48.604;2.096;2023-09-19T16:46:04;20.90;99.90
10512;DHT22;5304;48.604;2.096;2023-09-19T16:48:49;20.90;99.90
10512;DHT22;5304;48.604;2.096;2023-09-19T16:51:33;20.90;99.90
10512;DHT22;5304;48.604;2.096;2023-09-19T16:54:18;21.00;99.90
10512;DHT22;5304;48.604;2.096;2023-09-19T16:57:02;21.00;99.90
10512;DHT22;5304;48.604;2.096;2023-09-19T16:59:47;21.00;99.90
10512;DHT22;5304;48.604;2.096;2023-09-19T17:02:31;21.00;99.90
10512;DHT22;5304;48.604;2.096;2023-09-19T17:05:15;21.00;99.90
10512;DHT22;5304;48.604;2.096;2023-09-19T17:07:59;21.00;99.90
10512;DHT22;5304;48.604;2.096;2023-09-19T17:10:45;20.80;99.90
10512;DHT22;5304;48.604;2.096;2023-09-19T17:13:31;20.80;99.90
10512;DHT22;5304;48.604;2.096;2023-09-19T17:16:17;20.70;99.90
10512;DHT22;5304;48.604;2.096;2023-09-19T17:19:05;20.70;99.90
10512;DHT22;5304;48.604;2.096;2023-09-19T17:21:50;20.70;99.90
10512;DHT22;5304;48.604;2.096;2023-09-19T17:24:34;20.60;99.90
10512;DHT22;5304;48.604;2.096;2023-09-19T17:27:18;20.60;99.90
10512;DHT22;5304;48.604;2.096;2023-09-19T17:30:02;20.60;99.90
10512;DHT22;5304;48.604;2.096;2023-09-19T17:32:49;20.50;99.90
10512;DHT22;5304;48.604;2.096;2023-09-19T17:35:33;20.40;99.90
10512;DHT22;5304;48.604;2.096;2023-09-19T17:38:17;20.40;99.90
10512;DHT22;5304;48.604;2.096;2023-09-19T17:41:03;20.40;99.90
10512;DHT22;5304;48.604;2.096;2023-09-19T17:43:56;20.30;99.90
10512;DHT22;5304;48.604;2.096;2023-09-19T17:46:40;20.20;99.90
10512;DHT22;5304;48.604;2.096;2023-09-19T17:49:25;20.20;99.90
10512;DHT22;5304;48.604;2.096;2023-09-19T17:52:09;20.20;99.90
10512;DHT22;5304;48.604;2.096;2023-09-19T17:54:55;20.10;99.90
10512;DHT22;5304;48.604;2.096;2023-09-19T17:57:40;20.00;99.90
10512;DHT22;5304;48.604;2.096;2023-09-19T18:00:25;20.00;99.90
10512;DHT22;5304;48.604;2.096;2023-09-19T18:03:09;20.00;99.90
10512;DHT22;5304;48.604;2.096;2023-09-19T18:05:54;20.00;99.90
10512;DHT22;5304;48.604;2.096;2023-09-19T18:08:38;20.00;99.90
10512;DHT22;5304;48.604;2.096;2023-09-19T18:11:24;19.90;99.90
10512;DHT22;5304;48.604;2.096;2023-09-19T18:14:09;19.80;99.90
10512;DHT22;5304;48.604;2.096;2023-09-19T18:16:53;19.90;99.90
10512;DHT22;5304;48.604;2.096;2023-09-19T18:19:41;19.80;99.90
10512;DHT22;5304;48.604;2.096;2023-09-19T18:22:25;19.70;99.90
10512;DHT22;5304;48.604;2.096;2023-09-19T18:25:11;19.70;99.90
10512;DHT22;5304;48.604;2.096;2023-09-19T18:27:56;19.60;99.90
10512;DHT22;5304;48.604;2.096;2023-09-19T18:30:41;19.60;99.90
10512;DHT22;5304;48.604;2.096;2023-09-19T18:33:26;19.50;99.90
10512;DHT22;5304;48.604;2.096;2023-09-19T18:36:13;19.60;99.90
10512;DHT22;5304;48.604;2.096;2023-09-19T18:38:59;19.50;99.90
10512;DHT22;5304;48.604;2.096;2023-09-19T18:41:44;19.50;99.90
10512;DHT22;5304;48.604;2.096;2023-09-19T18:44:30;19.50;99.90
10512;DHT22;5304;48.604;2.096;2023-09-19T18:47:14;19.50;99.90
10512;DHT22;5304;48.604;2.096;2023-09-19T18:49:58;19.50;99.90
10512;DHT22;5304;48.604;2.096;2023-09-19T18:52:43;19.50;99.90
10512;DHT22;5304;48.604;2.096;2023-09-19T18:55:27;19.50;99.90
10512;DHT22;5304;48.604;2.096;2023-09-19T18:58:12;19.40;99.90
10512;DHT22;5304;48.604;2.096;2023-09-19T19:01:06;19.50;99.90
10512;DHT22;5304;48.604;2.096;2023-09-19T19:03:54;19.40;99.90
10512;DHT22;5304;48.604;2.096;2023-09-19T19:06:38;19.40;99.90
10512;DHT22;5304;48.604;2.096;2023-09-19T19:09:22;19.40;99.90
10512;DHT22;5304;48.604;2.096;2023-09-19T19:12:07;19.30;99.90
10512;DHT22;5304;48.604;2.096;2023-09-19T19:14:53;19.30;99.90
10512;DHT22;5304;48.604;2.096;2023-09-19T19:17:37;19.30;99.90
10512;DHT22;5304;48.604;2.096;2023-09-19T19:20:21;19.30;99.90
10512;DHT22;5304;48.604;2.096;2023-09-19T19:23:09;19.20;99.90
10512;DHT22;5304;48.604;2.096;2023-09-19T19:25:54;19.10;99.90
10512;DHT22;5304;48.604;2.096;2023-09-19T19:28:40;19.20;99.90
10512;DHT22;5304;48.604;2.096;2023-09-19T19:31:25;19.20;99.90
10512;DHT22;5304;48.604;2.096;2023-09-19T19:34:11;19.20;99.90
10512;DHT22;5304;48.604;2.096;2023-09-19T19:36:56;19.10;99.90
10512;DHT22;5304;48.604;2.096;2023-09-19T19:39:40;19.20;99.90
10512;DHT22;5304;48.604;2.096;2023-09-19T19:42:24;19.30;99.90
10512;DHT22;5304;48.604;2.096;2023-09-19T19:45:09;19.30;99.90
10512;DHT22;5304;48.604;2.096;2023-09-19T19:47:53;19.30;99.90
10512;DHT22;5304;48.604;2.096;2023-09-19T19:50:38;19.30;99.90
10512;DHT22;5304;48.604;2.096;2023-09-19T19:53:25;19.20;99.90
10512;DHT22;5304;48.604;2.096;2023-09-19T19:56:10;19.20;99.90
10512;DHT22;5304;48.604;2.096;2023-09-19T19:58:54;19.30;99.90
10512;DHT22;5304;48.604;2.096;2023-09-19T20:01:38;19.20;99.90
10512;DHT22;5304;48.604;2.096;2023-09-19T20:04:23;19.30;99.90
10512;DHT22;5304;48.604;2.096;2023-09-19T20:07:07;19.40;99.90
10512;DHT22;5304;48.604;2.096;2023-09-19T20:09:51;19.30;99.90
10512;DHT22;5304;48.604;2.096;2023-09-19T20:12:37;19.30;99.90
10512;DHT22;5304;48.604;2.096;2023-09-19T20:15:21;19.30;99.90
